createdAt,value
2022-11-16T00:01:44.055Z,24.97
2022-11-16T00:04:12.120Z,26.77
2022-11-16T00:06:39.933Z,21.13
2022-11-16T00:09:22.511Z,24.70
2022-11-16T00:11:51.350Z,23.37
2022-11-16T00:14:19.222Z,25.13
2022-11-16T00:16:46.395Z,26.70
2022-11-16T00:19:14.416Z,27.57
2022-11-16T00:21:41.439Z,23.40
2022-11-16T00:24:12.722Z,29.00
2022-11-16T00:26:39.562Z,34.50
2022-11-16T00:29:06.706Z,30.50
2022-11-16T00:31:33.414Z,24.43
2022-11-16T00:34:00.111Z,30.87
2022-11-16T00:36:27.555Z,24.03
2022-11-16T00:38:54.378Z,25.67
2022-11-16T00:41:21.379Z,27.57
2022-11-16T00:43:48.317Z,36.67
2022-11-16T00:46:15.008Z,31.73
2022-11-16T00:48:41.934Z,31.83
2022-11-16T00:51:08.764Z,31.03
2022-11-16T00:53:36.298Z,33.10
2022-11-16T00:56:03.318Z,28.13
2022-11-16T00:58:34.238Z,30.13
2022-11-16T01:01:07.400Z,28.60
2022-11-16T01:03:35.511Z,27.40
2022-11-16T01:06:04.639Z,33.23
2022-11-16T01:08:32.524Z,27.63
2022-11-16T01:11:20.174Z,38.83
2022-11-16T01:13:47.756Z,30.70
2022-11-16T01:16:16.324Z,35.17
2022-11-16T01:18:54.464Z,36.80
2022-11-16T01:21:22.647Z,33.50
2022-11-16T01:23:49.551Z,35.23
2022-11-16T01:26:16.486Z,33.87
2022-11-16T01:28:43.434Z,37.47
2022-11-16T01:31:11.586Z,26.87
2022-11-16T01:33:38.955Z,28.70
2022-11-16T01:36:14.211Z,34.57
2022-11-16T01:38:43.438Z,26.37
2022-11-16T01:41:15.327Z,32.60
2022-11-16T01:43:57.742Z,32.77
2022-11-16T01:46:30.633Z,33.57
2022-11-16T01:49:12.688Z,30.30
2022-11-16T01:51:41.643Z,25.90
2022-11-16T01:54:12.436Z,46.63
2022-11-16T01:56:49.135Z,36.30
2022-11-16T01:59:40.267Z,26.33
2022-11-16T02:02:13.593Z,25.33
2022-11-16T02:04:40.454Z,29.33
2022-11-16T02:07:15.119Z,33.97
2022-11-16T02:09:53.838Z,24.40
2022-11-16T02:12:57.979Z,29.97
2022-11-16T02:15:41.958Z,35.73
2022-11-16T02:18:36.994Z,32.33
2022-11-16T02:21:16.193Z,23.90
2022-11-16T02:24:27.601Z,22.50
2022-11-16T02:27:09.630Z,27.17
2022-11-16T02:29:42.634Z,34.87
2022-11-16T02:32:21.506Z,28.97
2022-11-16T02:35:03.146Z,25.80
2022-11-16T02:37:34.338Z,33.87
2022-11-16T02:40:06.575Z,28.97
2022-11-16T02:42:41.389Z,32.47
2022-11-16T02:45:13.243Z,23.43
2022-11-16T02:47:43.002Z,25.47
2022-11-16T02:50:15.246Z,27.70
2022-11-16T02:52:42.184Z,25.40
2022-11-16T02:55:11.496Z,25.67
2022-11-16T02:57:55.709Z,30.80
2022-11-16T03:00:25.637Z,25.10
2022-11-16T03:03:04.067Z,29.07
2022-11-16T03:05:35.390Z,35.33
2022-11-16T03:08:24.006Z,27.17
2022-11-16T03:11:18.563Z,25.60
2022-11-16T03:13:47.356Z,23.97
2022-11-16T03:16:22.472Z,28.33
2022-11-16T03:18:51.962Z,24.57
2022-11-16T03:21:33.037Z,47.40
2022-11-16T03:24:02.057Z,28.73
2022-11-16T03:26:59.771Z,27.63
2022-11-16T03:29:54.329Z,32.10
2022-11-16T03:32:30.939Z,33.63
2022-11-16T03:35:06.245Z,31.23
2022-11-16T03:37:34.582Z,35.27
2022-11-16T03:40:04.275Z,42.73
2022-11-16T03:42:33.663Z,37.97
2022-11-16T03:45:00.495Z,26.37
2022-11-16T03:47:27.345Z,35.10
2022-11-16T03:49:54.083Z,26.27
2022-11-16T03:52:22.526Z,22.50
2022-11-16T03:54:50.540Z,40.23
2022-11-16T03:57:18.615Z,27.57
2022-11-16T03:59:51.341Z,33.10
2022-11-16T04:02:18.310Z,38.10
2022-11-16T04:05:03.882Z,32.23
2022-11-16T04:07:50.183Z,24.87
2022-11-16T04:10:35.485Z,34.40
2022-11-16T04:13:22.963Z,27.57
2022-11-16T04:16:08.706Z,21.60
2022-11-16T04:18:54.090Z,19.93
2022-11-16T04:21:46.612Z,17.90
2022-11-16T04:24:21.455Z,20.57
2022-11-16T04:27:11.927Z,21.70
2022-11-16T04:29:41.563Z,23.20
2022-11-16T04:32:28.394Z,20.03
2022-11-16T04:35:14.638Z,19.43
2022-11-16T04:37:52.355Z,13.97
2022-11-16T04:40:29.436Z,26.27
2022-11-16T04:42:59.724Z,18.20
2022-11-16T04:45:48.370Z,16.30
2022-11-16T04:48:19.281Z,22.70
2022-11-16T04:50:47.236Z,22.23
2022-11-16T04:53:14.571Z,22.40
2022-11-16T04:55:50.331Z,17.57
2022-11-16T04:58:19.414Z,14.10
2022-11-16T05:00:46.554Z,14.40
2022-11-16T05:03:13.685Z,25.23
2022-11-16T05:05:40.795Z,16.53
2022-11-16T05:08:09.212Z,16.13
2022-11-16T05:10:36.494Z,17.73
2022-11-16T05:13:03.234Z,23.50
2022-11-16T05:15:30.276Z,19.83
2022-11-16T05:17:59.112Z,20.00
2022-11-16T05:20:44.836Z,22.17
2022-11-16T05:23:32.159Z,18.10
2022-11-16T05:26:04.431Z,23.10
2022-11-16T05:28:31.437Z,17.97
2022-11-16T05:30:58.430Z,16.40
2022-11-16T05:33:27.909Z,18.33
2022-11-16T05:35:54.833Z,15.63
2022-11-16T05:38:22.247Z,17.67
2022-11-16T05:40:53.049Z,14.27
2022-11-16T05:43:20.534Z,21.40
2022-11-16T05:46:05.999Z,31.97
2022-11-16T05:48:33.625Z,32.27
2022-11-16T05:51:00.517Z,30.27
2022-11-16T05:53:31.843Z,20.30
2022-11-16T05:55:58.827Z,25.63
2022-11-16T05:58:26.198Z,24.20
2022-11-16T06:00:53.655Z,33.07
2022-11-16T06:03:20.489Z,39.03
2022-11-16T06:05:47.321Z,33.10
2022-11-16T06:08:16.481Z,38.07
2022-11-16T06:10:43.331Z,35.83
2022-11-16T06:13:10.081Z,54.53
2022-11-16T06:15:38.532Z,33.77
2022-11-16T06:18:07.667Z,39.63
2022-11-16T06:20:38.148Z,49.07
2022-11-16T06:23:05.642Z,44.87
2022-11-16T06:25:32.539Z,50.63
2022-11-16T06:28:02.964Z,50.33
2022-11-16T06:30:34.247Z,37.90
2022-11-16T06:33:02.372Z,40.17
2022-11-16T06:35:29.225Z,26.53
2022-11-16T06:37:58.398Z,36.10
2022-11-16T06:40:25.780Z,30.23
2022-11-16T06:42:52.597Z,32.97
2022-11-16T06:45:19.622Z,47.53
2022-11-16T06:47:51.141Z,42.87
2022-11-16T06:50:19.279Z,50.27
2022-11-16T06:52:48.869Z,32.10
2022-11-16T06:55:17.095Z,41.80
2022-11-16T06:57:44.132Z,44.90
2022-11-16T07:00:11.518Z,31.57
2022-11-16T07:02:39.674Z,33.17
2022-11-16T07:05:09.838Z,29.87
2022-11-16T07:07:37.409Z,36.63
2022-11-16T07:10:04.951Z,31.40
2022-11-16T07:12:32.153Z,31.47
2022-11-16T07:15:00.364Z,26.80
2022-11-16T07:17:29.560Z,33.47
2022-11-16T07:19:57.439Z,24.93
2022-11-16T07:22:24.239Z,30.97
2022-11-16T07:24:51.875Z,28.83
2022-11-16T07:27:20.451Z,29.67
2022-11-16T07:29:50.153Z,28.53
2022-11-16T07:32:35.690Z,22.00
2022-11-16T07:35:28.752Z,26.80
2022-11-16T07:37:55.813Z,24.93
2022-11-16T07:40:22.608Z,28.33
2022-11-16T07:42:50.043Z,24.13
2022-11-16T07:45:33.580Z,21.07
2022-11-16T07:48:06.214Z,24.40
2022-11-16T07:50:51.474Z,18.70
2022-11-16T07:53:19.950Z,13.70
2022-11-16T07:55:54.865Z,21.47
2022-11-16T07:58:23.857Z,20.07
2022-11-16T08:00:51.106Z,12.70
2022-11-16T08:03:23.338Z,16.57
2022-11-16T08:06:02.477Z,13.10
2022-11-16T08:08:29.921Z,13.17
2022-11-16T08:11:01.651Z,13.67
2022-11-16T08:13:31.885Z,15.27
2022-11-16T08:16:10.574Z,12.97
2022-11-16T08:18:39.447Z,10.93
2022-11-16T08:21:08.767Z,10.00
2022-11-16T08:23:35.909Z,20.03
2022-11-16T08:26:06.550Z,12.63
2022-11-16T08:28:34.049Z,16.17
2022-11-16T08:31:08.131Z,22.00
2022-11-16T08:33:35.353Z,17.00
2022-11-16T08:36:13.590Z,14.97
2022-11-16T08:38:40.996Z,16.67
2022-11-16T08:41:08.093Z,12.73
2022-11-16T08:43:35.880Z,13.87
2022-11-16T08:46:03.186Z,26.37
2022-11-16T08:48:30.126Z,16.63
2022-11-16T08:51:21.560Z,16.00
2022-11-16T08:53:57.360Z,25.13
2022-11-16T08:56:27.092Z,15.03
2022-11-16T08:58:58.582Z,14.47
2022-11-16T09:01:28.747Z,15.70
2022-11-16T09:03:56.020Z,16.07
2022-11-16T09:06:24.114Z,16.93
2022-11-16T09:08:51.054Z,12.57
2022-11-16T09:11:20.829Z,14.97
2022-11-16T09:13:48.806Z,12.63
2022-11-16T09:16:16.729Z,11.93
2022-11-16T09:18:48.459Z,14.90
2022-11-16T09:21:21.055Z,19.07
2022-11-16T09:23:48.914Z,12.53
2022-11-16T09:26:19.087Z,13.77
2022-11-16T09:28:45.987Z,13.27
2022-11-16T09:31:12.750Z,21.77
2022-11-16T09:33:39.537Z,15.83
2022-11-16T09:36:08.814Z,16.73
2022-11-16T09:41:33.416Z,14.97
2022-11-16T09:44:24.513Z,11.23
2022-11-16T09:46:56.649Z,12.63
2022-11-16T09:49:28.831Z,8.90
2022-11-16T09:52:03.679Z,20.40
2022-11-16T09:54:35.427Z,10.97
2022-11-16T09:57:12.380Z,11.33
2022-11-16T09:59:51.802Z,10.30
2022-11-16T10:02:34.411Z,11.33
2022-11-16T10:05:21.914Z,11.07
2022-11-16T10:07:54.863Z,9.53
2022-11-16T10:10:33.173Z,8.33
2022-11-16T10:13:05.973Z,14.17
2022-11-16T10:16:06.703Z,17.80
2022-11-16T10:18:59.740Z,7.87
2022-11-16T10:21:38.531Z,10.60
2022-11-16T10:24:11.089Z,10.17
2022-11-16T10:27:04.187Z,9.17
2022-11-16T10:30:10.865Z,7.63
2022-11-16T10:32:48.848Z,6.50
2022-11-16T10:35:25.676Z,10.27
2022-11-16T10:37:52.505Z,12.70
2022-11-16T10:40:26.770Z,13.70
2022-11-16T10:43:11.415Z,9.17
2022-11-16T10:46:00.311Z,7.00
2022-11-16T10:48:41.230Z,11.13
2022-11-16T10:51:09.636Z,14.13
2022-11-16T10:53:43.766Z,10.50
2022-11-16T10:56:40.403Z,12.40
2022-11-16T10:59:10.550Z,23.90
2022-11-16T11:01:41.717Z,9.73
2022-11-16T11:04:16.423Z,9.53
2022-11-16T11:06:43.883Z,9.27
2022-11-16T11:09:30.982Z,11.57
2022-11-16T11:12:37.828Z,9.73
2022-11-16T11:15:26.238Z,6.07
2022-11-16T11:18:11.702Z,8.70
2022-11-16T11:20:44.742Z,8.97
2022-11-16T11:23:21.453Z,12.23
2022-11-16T11:25:52.519Z,9.33
2022-11-16T11:28:31.674Z,5.90
2022-11-16T11:31:16.802Z,8.73
2022-11-16T11:33:50.247Z,7.63
2022-11-16T11:36:23.718Z,6.73
2022-11-16T11:39:05.877Z,10.90
2022-11-16T11:41:39.294Z,9.90
2022-11-16T11:44:18.410Z,8.97
2022-11-16T11:47:56.603Z,9.80
2022-11-16T11:50:45.928Z,5.07
2022-11-16T11:53:15.728Z,9.00
2022-11-16T11:55:42.552Z,9.47
2022-11-16T11:58:16.111Z,9.20
2022-11-16T12:00:58.035Z,8.87
2022-11-16T12:03:42.972Z,6.50
2022-11-16T12:06:31.219Z,6.80
2022-11-16T12:09:23.435Z,6.20
2022-11-16T12:12:07.353Z,7.57
2022-11-16T12:14:51.222Z,4.77
2022-11-16T12:17:27.121Z,10.47
2022-11-16T12:20:00.033Z,9.07
2022-11-16T12:23:02.580Z,7.97
2022-11-16T12:26:01.701Z,7.97
2022-11-16T12:29:09.630Z,12.13
2022-11-16T12:31:50.433Z,7.33
2022-11-16T12:34:31.348Z,10.37
2022-11-16T12:37:22.521Z,7.37
2022-11-16T12:40:16.846Z,5.63
2022-11-16T12:42:58.594Z,13.83
2022-11-16T12:45:43.555Z,8.47
2022-11-16T12:48:25.686Z,5.10
2022-11-16T12:51:07.484Z,4.00
2022-11-16T12:53:43.235Z,3.60
2022-11-16T12:56:33.081Z,6.73
2022-11-16T12:59:11.636Z,4.47
2022-11-16T13:01:56.293Z,8.90
2022-11-16T13:04:35.928Z,5.03
2022-11-16T13:07:11.145Z,7.83
2022-11-16T13:09:43.386Z,6.93
2022-11-16T13:12:16.938Z,7.10
2022-11-16T13:14:48.091Z,3.37
2022-11-16T13:17:28.130Z,8.33
2022-11-16T13:20:15.503Z,4.60
2022-11-16T13:22:51.533Z,6.93
2022-11-16T13:25:31.395Z,5.23
2022-11-16T13:28:10.449Z,7.50
2022-11-16T13:31:03.351Z,10.73
2022-11-16T13:33:32.653Z,6.60
2022-11-16T13:35:59.411Z,9.43
2022-11-16T13:38:54.168Z,8.57
2022-11-16T13:41:33.468Z,6.33
2022-11-16T13:44:01.596Z,5.50
2022-11-16T13:46:58.698Z,7.50
2022-11-16T13:49:27.238Z,3.57
2022-11-16T13:52:22.204Z,5.47
2022-11-16T13:54:53.589Z,6.53
2022-11-16T13:57:27.777Z,3.47
2022-11-16T14:00:29.816Z,4.53
2022-11-16T14:03:15.213Z,3.57
2022-11-16T14:05:43.581Z,3.03
2022-11-16T14:08:19.461Z,5.73
2022-11-16T14:10:49.965Z,7.37
2022-11-16T14:13:39.132Z,4.70
2022-11-16T14:16:15.041Z,5.47
2022-11-16T14:18:42.906Z,4.40
2022-11-16T14:21:15.390Z,4.87
2022-11-16T14:23:48.183Z,6.13
2022-11-16T14:26:33.056Z,4.43
2022-11-16T14:29:26.991Z,5.67
2022-11-16T14:31:56.935Z,6.80
2022-11-16T14:34:30.540Z,9.37
2022-11-16T14:37:00.891Z,5.73
2022-11-16T14:39:27.768Z,4.40
2022-11-16T14:42:18.727Z,6.30
2022-11-16T14:44:46.487Z,5.00
2022-11-16T14:47:24.460Z,6.60
2022-11-16T14:49:51.794Z,3.53
2022-11-16T14:52:41.234Z,4.60
2022-11-16T14:55:16.793Z,8.17
2022-11-16T14:57:43.547Z,7.70
2022-11-16T15:00:22.650Z,7.97
2022-11-16T15:02:59.181Z,22.00
2022-11-16T15:05:33.365Z,6.00
2022-11-16T15:08:01.334Z,6.00
2022-11-16T15:10:29.454Z,5.90
2022-11-16T15:12:57.540Z,3.67
2022-11-16T15:15:27.778Z,7.10
2022-11-16T15:18:00.501Z,6.97
2022-11-16T15:20:33.795Z,6.03
2022-11-16T15:23:02.158Z,7.23
2022-11-16T15:25:42.404Z,9.07
2022-11-16T15:28:26.145Z,8.37
2022-11-16T15:30:54.543Z,5.27
2022-11-16T15:33:30.194Z,7.13
2022-11-16T15:35:57.557Z,6.33
2022-11-16T15:38:32.801Z,5.90
2022-11-16T15:41:04.315Z,5.20
2022-11-16T15:43:31.053Z,7.37
2022-11-16T15:45:59.192Z,10.77
2022-11-16T15:48:27.305Z,11.33
2022-11-16T15:51:07.887Z,11.47
2022-11-16T15:53:47.926Z,12.07
2022-11-16T15:56:20.575Z,12.30
2022-11-16T15:58:48.749Z,13.10
2022-11-16T16:01:16.545Z,10.27
2022-11-16T16:04:19.025Z,15.03
2022-11-16T16:06:45.937Z,9.93
2022-11-16T16:09:21.106Z,13.00
2022-11-16T16:11:48.237Z,9.23
2022-11-16T16:14:29.697Z,11.07
2022-11-16T16:17:00.682Z,11.00
2022-11-16T16:19:37.024Z,12.13
2022-11-16T16:22:05.652Z,15.57
2022-11-16T16:24:46.997Z,9.50
2022-11-16T16:27:38.066Z,11.60
2022-11-16T16:30:06.392Z,11.57
2022-11-16T16:32:35.511Z,10.37
2022-11-16T16:35:05.567Z,10.13
2022-11-16T16:37:33.833Z,16.00
2022-11-16T16:40:00.590Z,16.53
2022-11-16T16:42:27.576Z,11.33
2022-11-16T16:44:54.385Z,15.23
2022-11-16T16:47:21.249Z,9.80
2022-11-16T16:49:48.907Z,13.27
2022-11-16T16:52:15.692Z,14.73
2022-11-16T16:54:42.612Z,7.83
2022-11-16T16:57:14.350Z,8.63
2022-11-16T16:59:41.199Z,13.83
2022-11-16T17:02:11.646Z,13.97
2022-11-16T17:04:38.482Z,18.47
2022-11-16T17:07:05.407Z,14.33
2022-11-16T17:09:32.295Z,10.10
2022-11-16T17:11:59.021Z,13.47
2022-11-16T17:14:25.802Z,14.53
2022-11-16T17:16:52.544Z,10.33
2022-11-16T17:19:19.920Z,16.73
2022-11-16T17:21:46.705Z,9.63
2022-11-16T17:24:13.504Z,11.10
2022-11-16T17:26:40.784Z,14.67
2022-11-16T17:29:07.504Z,17.90
2022-11-16T17:31:34.254Z,11.07
2022-11-16T17:34:01.186Z,11.77
2022-11-16T17:36:27.908Z,14.47
2022-11-16T17:38:54.603Z,14.73
2022-11-16T17:41:22.186Z,16.27
2022-11-16T17:43:52.929Z,13.03
2022-11-16T17:46:21.844Z,15.93
2022-11-16T17:48:50.584Z,21.90
2022-11-16T17:51:22.952Z,15.17
2022-11-16T17:53:49.808Z,18.73
2022-11-16T17:56:22.119Z,14.40
2022-11-16T17:58:52.248Z,17.10
2022-11-16T18:01:19.410Z,14.43
2022-11-16T18:03:46.132Z,13.23
2022-11-16T18:06:18.526Z,16.10
2022-11-16T18:08:46.270Z,18.77
2022-11-16T18:11:19.182Z,24.67
2022-11-16T18:13:46.953Z,17.13
2022-11-16T18:16:19.462Z,18.47
2022-11-16T18:18:47.406Z,16.40
2022-11-16T18:21:20.375Z,11.57
2022-11-16T18:23:47.988Z,14.10
2022-11-16T18:26:17.540Z,12.40
2022-11-16T18:28:45.380Z,16.10
2022-11-16T18:31:15.299Z,9.63
2022-11-16T18:33:42.435Z,11.80
2022-11-16T18:36:09.915Z,10.70
2022-11-16T18:38:37.494Z,12.23
2022-11-16T18:41:13.398Z,10.07
2022-11-16T18:43:40.763Z,14.23
2022-11-16T18:46:07.786Z,8.83
2022-11-16T18:48:34.774Z,8.27
2022-11-16T18:51:02.991Z,7.10
2022-11-16T18:53:30.869Z,11.93
2022-11-16T18:55:58.436Z,10.03
2022-11-16T19:01:16.974Z,8.70
2022-11-16T19:03:43.917Z,9.90
2022-11-16T19:06:11.783Z,12.10
2022-11-16T19:08:40.460Z,10.77
2022-11-16T19:11:09.762Z,10.20
2022-11-16T19:13:37.021Z,10.67
2022-11-16T19:16:04.385Z,7.90
2022-11-16T19:18:31.611Z,14.47
2022-11-16T19:21:23.630Z,12.37
2022-11-16T19:23:52.942Z,13.43
2022-11-16T19:26:25.630Z,12.23
2022-11-16T19:28:53.587Z,11.63
2022-11-16T19:31:24.507Z,11.90
2022-11-16T19:33:55.966Z,17.27
2022-11-16T19:36:24.094Z,6.67
2022-11-16T19:38:51.229Z,10.83
2022-11-16T19:41:21.246Z,9.47
2022-11-16T19:43:49.288Z,7.93
2022-11-16T19:46:17.018Z,6.50
2022-11-16T19:48:44.951Z,5.67
2022-11-16T19:51:21.295Z,10.67
2022-11-16T19:53:48.343Z,8.57
2022-11-16T19:56:17.443Z,7.50
2022-11-16T19:58:44.316Z,10.80
2022-11-16T20:01:19.520Z,9.43
2022-11-16T20:03:48.693Z,9.87
2022-11-16T20:06:24.791Z,10.40
2022-11-16T20:08:53.860Z,10.27
2022-11-16T20:11:23.523Z,9.43
2022-11-16T20:13:52.161Z,6.60
2022-11-16T20:16:22.563Z,7.80
2022-11-16T20:18:50.439Z,7.40
2022-11-16T20:21:34.401Z,6.83
2022-11-16T20:24:06.422Z,6.17
2022-11-16T20:26:36.176Z,8.13
2022-11-16T20:29:03.969Z,8.87
2022-11-16T20:31:33.193Z,8.43
2022-11-16T20:34:02.394Z,6.17
2022-11-16T20:36:30.642Z,6.63
2022-11-16T20:38:58.984Z,7.47
2022-11-16T20:41:32.415Z,6.23
2022-11-16T20:44:00.997Z,9.17
2022-11-16T20:46:29.925Z,12.07
2022-11-16T20:48:59.429Z,4.67
2022-11-16T20:51:27.196Z,10.87
2022-11-16T20:53:54.140Z,7.37
2022-11-16T20:56:21.510Z,6.50
2022-11-16T20:58:49.479Z,9.17
2022-11-16T21:01:28.316Z,7.87
2022-11-16T21:03:56.375Z,13.27
2022-11-16T21:06:23.265Z,6.53
2022-11-16T21:08:50.109Z,9.50
2022-11-16T21:11:20.154Z,8.57
2022-11-16T21:14:06.294Z,6.23
2022-11-16T21:16:33.699Z,13.73
2022-11-16T21:19:00.708Z,7.30
2022-11-16T21:21:27.696Z,7.30
2022-11-16T21:23:55.007Z,8.03
2022-11-16T21:26:30.093Z,4.80
2022-11-16T21:28:57.860Z,5.80
2022-11-16T21:31:27.443Z,7.10
2022-11-16T21:33:54.612Z,6.70
2022-11-16T21:36:24.379Z,5.87
2022-11-16T21:38:51.977Z,5.67
2022-11-16T21:41:20.904Z,6.10
2022-11-16T21:43:47.927Z,5.77
2022-11-16T21:46:17.387Z,9.63
2022-11-16T21:48:44.930Z,13.47
2022-11-16T21:51:13.602Z,8.43
2022-11-16T21:53:40.649Z,6.83
2022-11-16T21:56:10.612Z,5.07
2022-11-16T21:58:38.989Z,6.10
2022-11-16T22:01:06.014Z,6.03
2022-11-16T22:03:33.080Z,4.73
2022-11-16T22:06:20.950Z,7.77
2022-11-16T22:08:48.126Z,6.23
2022-11-16T22:11:15.835Z,6.43
2022-11-16T22:13:43.555Z,12.33
2022-11-16T22:16:13.326Z,6.07
2022-11-16T22:18:40.100Z,9.70
2022-11-16T22:21:07.541Z,8.63
2022-11-16T22:23:36.026Z,7.40
2022-11-16T22:26:05.636Z,6.07
2022-11-16T22:28:33.364Z,9.90
2022-11-16T22:31:02.060Z,6.10
2022-11-16T22:33:29.395Z,10.07
2022-11-16T22:35:56.299Z,6.53
2022-11-16T22:38:23.443Z,11.73
2022-11-16T22:40:55.302Z,9.90
2022-11-16T22:43:25.030Z,10.37
2022-11-16T22:45:51.729Z,6.53
2022-11-16T22:48:18.515Z,3.67
2022-11-16T22:50:45.319Z,7.73
2022-11-16T22:53:12.153Z,11.40
2022-11-16T22:55:39.269Z,8.53
2022-11-16T22:58:06.524Z,12.73
2022-11-16T23:00:40.557Z,8.00
2022-11-16T23:03:08.734Z,8.97
2022-11-16T23:05:35.470Z,10.03
2022-11-16T23:08:02.163Z,8.17
2022-11-16T23:10:29.070Z,10.13
2022-11-16T23:13:14.037Z,5.87
2022-11-16T23:15:49.946Z,12.60
2022-11-16T23:18:18.014Z,11.00
2022-11-16T23:21:03.311Z,8.20
2022-11-16T23:23:48.589Z,9.90
2022-11-16T23:26:41.233Z,10.30
2022-11-16T23:29:09.659Z,9.03
2022-11-16T23:31:37.545Z,9.07
2022-11-16T23:34:04.493Z,8.53
2022-11-16T23:36:31.203Z,7.13
2022-11-16T23:38:57.969Z,6.87
2022-11-16T23:41:43.197Z,10.57
2022-11-16T23:44:09.979Z,11.03
2022-11-16T23:46:36.696Z,7.50
2022-11-16T23:49:03.466Z,13.17
2022-11-16T23:51:30.189Z,15.53
2022-11-16T23:53:56.926Z,8.07
2022-11-16T23:56:23.755Z,10.23
2022-11-16T23:58:50.537Z,10.47
